createdAt,value
2022-09-24T00:01:39.785Z,13.90
2022-09-24T00:04:11.416Z,13.90
2022-09-24T00:06:45.147Z,13.90
2022-09-24T00:09:14.840Z,13.80
2022-09-24T00:11:45.859Z,13.80
2022-09-24T00:14:13.912Z,13.80
2022-09-24T00:16:42.575Z,13.70
2022-09-24T00:19:12.508Z,13.70
2022-09-24T00:21:41.002Z,13.70
2022-09-24T00:24:33.511Z,13.60
2022-09-24T00:27:03.066Z,13.60
2022-09-24T00:29:33.838Z,13.50
2022-09-24T00:32:01.484Z,13.60
2022-09-24T00:34:28.824Z,13.60
2022-09-24T00:36:55.706Z,13.50
2022-09-24T00:39:22.690Z,13.50
2022-09-24T00:41:50.225Z,13.50
2022-09-24T00:44:45.008Z,13.50
2022-09-24T00:47:17.430Z,13.40
2022-09-24T00:49:48.026Z,13.40
2022-09-24T00:52:16.848Z,13.40
2022-09-24T00:54:46.165Z,13.30
2022-09-24T00:57:13.917Z,13.30
2022-09-24T00:59:43.113Z,13.30
2022-09-24T01:02:10.087Z,13.30
2022-09-24T01:04:37.147Z,13.30
2022-09-24T01:07:04.258Z,13.30
2022-09-24T01:09:31.428Z,13.30
2022-09-24T01:12:20.553Z,13.30
2022-09-24T01:15:05.685Z,13.20
2022-09-24T01:18:02.231Z,13.20
2022-09-24T01:20:57.480Z,13.20
2022-09-24T01:23:52.460Z,13.20
2022-09-24T01:27:01.397Z,13.20
2022-09-24T01:29:52.549Z,13.20
2022-09-24T01:32:49.708Z,13.20
2022-09-24T01:35:24.282Z,13.20
2022-09-24T01:38:09.960Z,13.20
2022-09-24T01:40:38.903Z,13.20
2022-09-24T01:43:08.951Z,13.10
2022-09-24T01:45:38.734Z,13.20
2022-09-24T01:48:07.268Z,13.20
2022-09-24T01:51:06.012Z,13.30
2022-09-24T01:53:42.681Z,13.30
2022-09-24T01:56:41.248Z,13.30
2022-09-24T01:59:18.171Z,13.30
2022-09-24T02:01:55.447Z,13.40
2022-09-24T02:04:26.005Z,13.40
2022-09-24T02:07:01.961Z,13.40
2022-09-24T02:09:36.980Z,13.40
2022-09-24T02:12:17.627Z,13.40
2022-09-24T02:14:50.776Z,13.40
2022-09-24T02:17:20.921Z,13.40
2022-09-24T02:19:50.214Z,13.40
2022-09-24T02:22:17.891Z,13.50
2022-09-24T02:24:58.424Z,13.50
2022-09-24T02:27:28.742Z,13.50
2022-09-24T02:29:59.892Z,13.50
2022-09-24T02:32:31.239Z,13.60
2022-09-24T02:35:06.123Z,13.60
2022-09-24T02:37:40.747Z,13.80
2022-09-24T02:40:12.056Z,13.60
2022-09-24T02:42:41.204Z,13.70
2022-09-24T02:45:09.804Z,13.70
2022-09-24T02:47:37.013Z,13.70
2022-09-24T02:50:04.856Z,13.70
2022-09-24T02:52:32.011Z,13.80
2022-09-24T02:54:59.016Z,13.80
2022-09-24T02:57:25.900Z,13.80
2022-09-24T02:59:52.883Z,13.80
2022-09-24T03:02:19.819Z,13.80
2022-09-24T03:04:47.240Z,13.80
2022-09-24T03:07:14.994Z,13.80
2022-09-24T03:09:42.345Z,13.90
2022-09-24T03:12:09.585Z,13.80
2022-09-24T03:14:36.470Z,13.90
2022-09-24T03:17:03.477Z,13.90
2022-09-24T03:19:30.439Z,13.90
2022-09-24T03:21:57.569Z,13.90
2022-09-24T03:24:24.950Z,13.90
2022-09-24T03:26:52.087Z,14.00
2022-09-24T03:29:39.038Z,13.90
2022-09-24T03:32:06.113Z,14.30
2022-09-24T03:34:33.110Z,13.90
2022-09-24T03:37:00.067Z,13.90
2022-09-24T03:39:27.626Z,13.90
2022-09-24T03:41:54.402Z,13.90
2022-09-24T03:44:21.523Z,13.90
2022-09-24T03:46:50.086Z,13.90
2022-09-24T03:49:17.526Z,13.90
2022-09-24T03:51:44.574Z,14.00
2022-09-24T03:54:12.540Z,14.00
2022-09-24T03:56:39.656Z,13.90
2022-09-24T03:59:06.949Z,13.90
2022-09-24T04:01:37.142Z,13.90
2022-09-24T04:04:05.169Z,13.90
2022-09-24T04:06:32.057Z,13.90
2022-09-24T04:09:00.288Z,13.90
2022-09-24T04:11:27.501Z,13.90
2022-09-24T04:13:54.398Z,13.90
2022-09-24T04:16:21.787Z,13.90
2022-09-24T04:18:48.881Z,13.90
2022-09-24T04:21:15.865Z,13.90
2022-09-24T04:23:43.179Z,13.90
2022-09-24T04:26:10.354Z,13.90
2022-09-24T04:28:37.368Z,13.90
2022-09-24T04:31:05.159Z,13.90
2022-09-24T04:33:32.129Z,13.90
2022-09-24T04:35:59.382Z,13.90
2022-09-24T04:38:26.335Z,13.90
2022-09-24T04:40:53.286Z,13.90
2022-09-24T04:43:20.133Z,13.90
2022-09-24T04:45:47.393Z,13.90
2022-09-24T04:48:14.467Z,13.90
2022-09-24T04:50:45.909Z,13.90
2022-09-24T04:53:14.106Z,13.90
2022-09-24T04:55:41.908Z,13.90
2022-09-24T04:58:09.758Z,13.90
2022-09-24T05:00:36.831Z,13.90
2022-09-24T05:03:04.237Z,13.90
2022-09-24T05:05:33.477Z,13.90
2022-09-24T05:08:01.509Z,13.90
2022-09-24T05:10:31.298Z,13.90
2022-09-24T05:12:58.441Z,14.10
2022-09-24T05:15:25.326Z,14.00
2022-09-24T05:17:52.541Z,14.00
2022-09-24T05:20:19.404Z,13.90
2022-09-24T05:22:49.437Z,14.00
2022-09-24T05:25:20.427Z,14.00
2022-09-24T05:27:50.201Z,14.00
2022-09-24T05:30:19.351Z,14.00
2022-09-24T05:32:49.577Z,14.00
2022-09-24T05:35:16.575Z,14.00
2022-09-24T05:37:44.051Z,14.10
2022-09-24T05:40:29.787Z,14.10
2022-09-24T05:43:02.591Z,14.10
2022-09-24T05:45:31.477Z,14.10
2022-09-24T05:48:00.133Z,14.20
2022-09-24T05:50:27.748Z,14.20
2022-09-24T05:52:56.373Z,14.20
2022-09-24T05:55:23.153Z,14.30
2022-09-24T05:57:50.193Z,14.40
2022-09-24T06:00:17.082Z,14.40
2022-09-24T06:02:44.499Z,14.50
2022-09-24T06:05:12.592Z,14.50
2022-09-24T06:07:39.648Z,14.50
2022-09-24T06:10:07.466Z,14.60
2022-09-24T06:12:35.147Z,14.60
2022-09-24T06:15:02.744Z,14.70
2022-09-24T06:17:30.218Z,14.70
2022-09-24T06:19:58.069Z,14.80
2022-09-24T06:22:28.329Z,14.80
2022-09-24T06:24:56.052Z,14.90
2022-09-24T06:27:22.902Z,14.90
2022-09-24T06:29:49.932Z,15.00
2022-09-24T06:32:18.831Z,15.00
2022-09-24T06:34:45.748Z,15.10
2022-09-24T06:37:12.709Z,15.10
2022-09-24T06:39:39.765Z,15.20
2022-09-24T06:42:07.260Z,15.30
2022-09-24T06:44:35.447Z,15.30
2022-09-24T06:47:02.702Z,15.30
2022-09-24T06:49:33.724Z,15.30
2022-09-24T06:52:01.489Z,15.50
2022-09-24T06:54:30.430Z,15.60
2022-09-24T06:56:57.253Z,15.60
2022-09-24T06:59:24.234Z,15.70
2022-09-24T07:01:51.065Z,15.80
2022-09-24T07:04:18.032Z,15.90
2022-09-24T07:07:03.331Z,16.00
2022-09-24T07:09:30.375Z,16.00
2022-09-24T07:11:58.855Z,16.10
2022-09-24T07:14:25.873Z,16.20
2022-09-24T07:16:53.885Z,16.20
2022-09-24T07:19:21.163Z,16.40
2022-09-24T07:21:48.049Z,16.20
2022-09-24T07:24:15.067Z,16.30
2022-09-24T07:26:42.334Z,16.30
2022-09-24T07:29:09.354Z,16.30
2022-09-24T07:31:36.760Z,16.30
2022-09-24T07:34:03.632Z,16.30
2022-09-24T07:36:31.944Z,16.30
2022-09-24T07:38:58.817Z,16.50
2022-09-24T07:41:25.840Z,16.50
2022-09-24T07:43:55.610Z,16.50
2022-09-24T07:46:22.545Z,16.60
2022-09-24T07:49:14.857Z,16.70
2022-09-24T07:51:42.498Z,16.80
2022-09-24T07:54:13.859Z,16.90
2022-09-24T07:56:44.265Z,16.90
2022-09-24T07:59:11.162Z,17.00
2022-09-24T08:01:38.363Z,17.10
2022-09-24T08:04:06.095Z,17.10
2022-09-24T08:06:39.554Z,17.30
2022-09-24T08:09:08.345Z,17.40
2022-09-24T08:11:35.617Z,17.40
2022-09-24T08:14:02.845Z,17.50
2022-09-24T08:16:29.893Z,17.70
2022-09-24T08:18:56.844Z,17.80
2022-09-24T08:21:23.733Z,17.90
2022-09-24T08:23:50.634Z,18.00
2022-09-24T08:26:18.148Z,18.20
2022-09-24T08:28:45.050Z,18.40
2022-09-24T08:31:13.544Z,18.60
2022-09-24T08:33:40.931Z,18.70
2022-09-24T08:36:10.047Z,18.80
2022-09-24T08:38:37.142Z,18.90
2022-09-24T08:41:13.413Z,19.10
2022-09-24T08:44:00.751Z,19.20
2022-09-24T08:47:09.895Z,19.30
2022-09-24T08:49:50.922Z,19.40
2022-09-24T08:53:01.763Z,19.50
2022-09-24T08:55:39.685Z,19.60
2022-09-24T08:58:17.751Z,19.80
2022-09-24T09:01:13.156Z,19.90
2022-09-24T09:03:49.813Z,20.00
2022-09-24T09:06:57.733Z,20.10
2022-09-24T09:09:44.346Z,20.30
2022-09-24T09:12:27.914Z,20.30
2022-09-24T09:15:03.635Z,20.60
2022-09-24T09:17:56.591Z,20.90
2022-09-24T09:20:52.665Z,21.00
2022-09-24T09:23:40.049Z,21.20
2022-09-24T09:26:11.461Z,21.40
2022-09-24T09:28:38.674Z,21.70
2022-09-24T09:31:26.206Z,21.90
2022-09-24T09:34:29.700Z,22.10
2022-09-24T09:37:30.538Z,22.30
2022-09-24T09:40:22.564Z,22.20
2022-09-24T09:42:50.852Z,22.60
2022-09-24T09:45:42.187Z,22.70
2022-09-24T09:48:20.328Z,22.80
2022-09-24T09:50:50.894Z,22.90
2022-09-24T09:53:27.748Z,22.90
2022-09-24T09:56:07.380Z,23.00
2022-09-24T09:58:37.950Z,23.00
2022-09-24T10:01:12.696Z,23.20
2022-09-24T10:03:54.628Z,23.10
2022-09-24T10:06:35.220Z,23.10
2022-09-24T10:09:22.627Z,23.20
2022-09-24T10:11:49.625Z,23.40
2022-09-24T10:14:19.143Z,23.30
2022-09-24T10:16:54.140Z,23.40
2022-09-24T10:19:27.500Z,23.50
2022-09-24T10:21:58.277Z,23.50
2022-09-24T10:24:27.514Z,23.70
2022-09-24T10:26:55.693Z,23.70
2022-09-24T10:29:52.413Z,23.70
2022-09-24T10:32:23.694Z,23.80
2022-09-24T10:35:06.329Z,23.90
2022-09-24T10:37:33.200Z,23.90
2022-09-24T10:40:15.548Z,24.00
2022-09-24T10:42:42.695Z,23.90
2022-09-24T10:45:14.239Z,24.00
2022-09-24T10:48:05.622Z,23.80
2022-09-24T10:50:58.846Z,23.70
2022-09-24T10:54:13.237Z,23.70
2022-09-24T10:56:46.940Z,23.70
2022-09-24T10:59:28.256Z,23.50
2022-09-24T11:02:13.271Z,23.80
2022-09-24T11:04:58.982Z,23.80
2022-09-24T11:07:38.459Z,23.70
2022-09-24T11:10:23.101Z,23.80
2022-09-24T11:13:17.492Z,24.00
2022-09-24T11:16:25.796Z,23.80
2022-09-24T11:19:03.193Z,23.90
2022-09-24T11:21:53.417Z,23.90
2022-09-24T11:24:57.882Z,23.90
2022-09-24T11:27:49.673Z,24.00
2022-09-24T11:30:32.323Z,24.10
2022-09-24T11:33:22.807Z,24.20
2022-09-24T11:36:26.801Z,24.40
2022-09-24T11:39:24.815Z,24.70
2022-09-24T11:42:16.454Z,24.90
2022-09-24T11:45:19.703Z,25.20
2022-09-24T11:48:02.136Z,25.60
2022-09-24T11:51:21.013Z,25.90
2022-09-24T11:54:07.784Z,26.10
2022-09-24T11:56:41.298Z,26.20
2022-09-24T11:59:30.116Z,26.30
2022-09-24T12:02:25.233Z,26.40
2022-09-24T12:05:07.484Z,26.20
2022-09-24T12:07:46.061Z,26.10
2022-09-24T12:10:35.670Z,26.00
2022-09-24T12:13:16.008Z,25.80
2022-09-24T12:16:07.374Z,25.70
2022-09-24T12:18:50.488Z,25.60
2022-09-24T12:21:24.074Z,25.50
2022-09-24T12:24:02.245Z,25.20
2022-09-24T12:26:31.267Z,25.10
2022-09-24T12:29:54.233Z,25.00
2022-09-24T12:32:53.791Z,24.90
2022-09-24T12:36:02.133Z,24.90
2022-09-24T12:38:48.475Z,24.80
2022-09-24T12:41:38.315Z,24.80
2022-09-24T12:44:11.178Z,24.70
2022-09-24T12:46:47.207Z,24.90
2022-09-24T12:49:29.994Z,24.90
2022-09-24T12:52:05.238Z,24.90
2022-09-24T12:54:38.226Z,24.80
2022-09-24T12:57:26.383Z,25.20
2022-09-24T12:59:59.961Z,25.00
2022-09-24T13:02:45.156Z,25.00
2022-09-24T13:05:27.084Z,25.00
2022-09-24T13:08:22.865Z,25.00
2022-09-24T13:11:00.490Z,25.00
2022-09-24T13:13:31.717Z,24.80
2022-09-24T13:16:06.039Z,24.80
2022-09-24T13:18:36.296Z,24.60
2022-09-24T13:21:08.894Z,24.60
2022-09-24T13:23:38.678Z,24.60
2022-09-24T13:26:09.170Z,24.60
2022-09-24T13:28:48.823Z,24.60
2022-09-24T13:31:23.897Z,24.70
2022-09-24T13:34:20.077Z,24.60
2022-09-24T13:37:02.633Z,24.60
2022-09-24T13:39:50.360Z,24.80
2022-09-24T13:42:47.977Z,24.80
2022-09-24T13:45:20.948Z,24.80
2022-09-24T13:48:04.373Z,24.80
2022-09-24T13:50:36.581Z,24.80
2022-09-24T13:53:26.044Z,24.80
2022-09-24T13:55:59.719Z,24.80
2022-09-24T13:58:29.178Z,24.80
2022-09-24T14:00:59.747Z,24.90
2022-09-24T14:03:32.817Z,24.80
2022-09-24T14:06:13.729Z,24.80
2022-09-24T14:08:46.917Z,24.70
2022-09-24T14:11:18.888Z,24.70
2022-09-24T14:13:46.216Z,24.80
2022-09-24T14:16:26.454Z,24.70
2022-09-24T14:19:16.850Z,24.60
2022-09-24T14:21:50.421Z,24.60
2022-09-24T14:24:42.533Z,24.60
2022-09-24T14:27:15.554Z,24.60
2022-09-24T14:30:00.953Z,24.30
2022-09-24T14:33:03.679Z,24.50
2022-09-24T14:35:33.769Z,24.50
2022-09-24T14:38:12.697Z,24.20
2022-09-24T14:40:44.936Z,24.30
2022-09-24T14:46:37.393Z,24.10
2022-09-24T14:49:26.413Z,24.10
2022-09-24T14:52:03.927Z,23.90
2022-09-24T14:54:40.536Z,23.90
2022-09-24T14:57:11.370Z,23.80
2022-09-24T14:59:41.702Z,23.70
2022-09-24T15:02:31.080Z,23.80
2022-09-24T15:05:06.720Z,23.60
2022-09-24T15:07:35.637Z,23.50
2022-09-24T15:10:05.398Z,23.50
2022-09-24T15:12:37.579Z,23.30
2022-09-24T15:15:16.795Z,23.20
2022-09-24T15:17:47.437Z,23.10
2022-09-24T15:20:14.848Z,23.10
2022-09-24T15:22:41.652Z,23.00
2022-09-24T15:25:10.167Z,22.90
2022-09-24T15:27:42.452Z,22.80
2022-09-24T15:30:27.777Z,22.60
2022-09-24T15:32:55.054Z,22.60
2022-09-24T15:35:22.149Z,22.60
2022-09-24T15:37:49.580Z,22.50
2022-09-24T15:40:25.536Z,22.40
2022-09-24T15:42:52.999Z,22.30
2022-09-24T15:45:23.364Z,22.00
2022-09-24T15:47:51.548Z,22.10
2022-09-24T15:50:21.166Z,22.10
2022-09-24T15:52:53.939Z,22.00
2022-09-24T15:55:22.383Z,21.90
2022-09-24T15:57:49.502Z,21.80
2022-09-24T16:00:19.896Z,21.70
2022-09-24T16:02:52.307Z,21.70
2022-09-24T16:05:20.103Z,21.60
2022-09-24T16:07:47.519Z,21.50
2022-09-24T16:10:15.773Z,21.60
2022-09-24T16:12:43.467Z,21.40
2022-09-24T16:15:16.429Z,21.30
2022-09-24T16:17:43.625Z,21.20
2022-09-24T16:20:10.531Z,21.20
2022-09-24T16:22:37.847Z,21.10
2022-09-24T16:25:05.705Z,21.10
2022-09-24T16:27:34.403Z,21.00
2022-09-24T16:30:02.588Z,20.90
2022-09-24T16:32:29.805Z,21.00
2022-09-24T16:34:56.981Z,20.80
2022-09-24T16:37:25.167Z,20.80
2022-09-24T16:39:52.734Z,20.90
2022-09-24T16:42:21.617Z,20.60
2022-09-24T16:44:48.453Z,20.60
2022-09-24T16:47:17.525Z,20.50
2022-09-24T16:49:44.726Z,20.30
2022-09-24T16:52:11.568Z,20.30
2022-09-24T16:54:38.607Z,20.20
2022-09-24T16:57:06.239Z,20.10
2022-09-24T16:59:36.978Z,20.00
2022-09-24T17:02:04.037Z,19.90
2022-09-24T17:04:31.313Z,19.80
2022-09-24T17:06:59.362Z,19.80
2022-09-24T17:09:44.687Z,19.70
2022-09-24T17:12:11.843Z,19.40
2022-09-24T17:14:38.964Z,19.70
2022-09-24T17:17:06.647Z,19.40
2022-09-24T17:19:33.883Z,19.40
2022-09-24T17:22:00.732Z,19.50
2022-09-24T17:24:28.134Z,19.30
2022-09-24T17:26:56.532Z,19.20
2022-09-24T17:29:30.378Z,19.10
2022-09-24T17:31:59.135Z,19.10
2022-09-24T17:34:26.196Z,19.10
2022-09-24T17:36:53.070Z,19.00
2022-09-24T17:39:20.867Z,19.10
2022-09-24T17:41:47.657Z,18.90
2022-09-24T17:44:17.699Z,18.90
2022-09-24T17:46:44.779Z,18.90
2022-09-24T17:49:12.294Z,18.80
2022-09-24T17:51:39.352Z,18.80
2022-09-24T17:54:13.808Z,18.80
2022-09-24T17:56:41.712Z,18.80
2022-09-24T17:59:11.168Z,19.00
2022-09-24T18:01:40.741Z,18.70
2022-09-24T18:04:15.518Z,18.80
2022-09-24T18:06:45.061Z,18.70
2022-09-24T18:09:14.598Z,18.70
2022-09-24T18:11:52.374Z,18.70
2022-09-24T18:14:22.290Z,18.80
2022-09-24T18:16:50.238Z,18.60
2022-09-24T18:19:17.951Z,18.60
2022-09-24T18:21:46.752Z,18.60
2022-09-24T18:24:14.395Z,18.60
2022-09-24T18:26:41.507Z,18.60
2022-09-24T18:29:17.573Z,18.50
2022-09-24T18:31:45.273Z,18.50
2022-09-24T18:34:15.381Z,18.50
2022-09-24T18:36:44.848Z,18.30
2022-09-24T18:39:15.855Z,18.50
2022-09-24T18:41:44.841Z,18.50
2022-09-24T18:44:12.110Z,18.50
2022-09-24T18:46:39.436Z,18.40
2022-09-24T18:49:06.671Z,18.40
2022-09-24T18:51:37.004Z,18.40
2022-09-24T18:54:08.685Z,18.40
2022-09-24T18:56:36.370Z,18.20
2022-09-24T18:59:14.511Z,18.40
2022-09-24T19:01:42.942Z,18.20
2022-09-24T19:04:11.971Z,18.20
2022-09-24T19:06:42.179Z,18.20
2022-09-24T19:09:13.447Z,18.10
2022-09-24T19:11:42.196Z,18.10
2022-09-24T19:14:11.980Z,18.10
2022-09-24T19:16:39.785Z,18.10
2022-09-24T19:19:06.992Z,18.00
2022-09-24T19:21:34.265Z,18.00
2022-09-24T19:24:01.613Z,18.00
2022-09-24T19:26:31.991Z,18.00
2022-09-24T19:28:59.506Z,17.90
2022-09-24T19:31:32.925Z,17.90
2022-09-24T19:34:03.262Z,17.90
2022-09-24T19:36:31.089Z,17.90
2022-09-24T19:38:58.116Z,17.90
2022-09-24T19:41:26.566Z,17.90
2022-09-24T19:43:57.052Z,17.80
2022-09-24T19:46:27.032Z,17.80
2022-09-24T19:48:56.296Z,17.80
2022-09-24T19:51:30.166Z,17.80
2022-09-24T19:54:04.833Z,17.80
2022-09-24T19:56:32.047Z,17.70
2022-09-24T19:59:01.456Z,17.70
2022-09-24T20:01:31.725Z,17.70
2022-09-24T20:04:03.327Z,17.70
2022-09-24T20:06:33.639Z,17.70
2022-09-24T20:09:01.001Z,17.70
2022-09-24T20:11:29.515Z,17.70
2022-09-24T20:13:56.717Z,17.70
2022-09-24T20:19:17.832Z,17.70
2022-09-24T20:21:44.974Z,17.70
2022-09-24T20:24:12.499Z,17.70
2022-09-24T20:26:57.862Z,17.60
2022-09-24T20:29:24.914Z,17.60
2022-09-24T20:31:55.309Z,17.60
2022-09-24T20:34:36.172Z,17.70
2022-09-24T20:37:06.352Z,17.60
2022-09-24T20:39:33.358Z,17.60
2022-09-24T20:42:06.062Z,17.60
2022-09-24T20:44:37.218Z,17.50
2022-09-24T20:47:05.305Z,17.50
2022-09-24T20:49:33.176Z,17.50
2022-09-24T20:52:02.928Z,17.60
2022-09-24T20:54:29.794Z,17.50
2022-09-24T20:56:57.791Z,17.50
2022-09-24T20:59:26.850Z,17.50
2022-09-24T21:01:54.725Z,17.50
2022-09-24T21:04:22.538Z,17.50
2022-09-24T21:06:49.499Z,17.50
2022-09-24T21:09:17.217Z,17.40
2022-09-24T21:11:44.227Z,17.40
2022-09-24T21:14:12.590Z,17.40
2022-09-24T21:16:39.463Z,17.40
2022-09-24T21:19:08.285Z,17.40
2022-09-24T21:21:38.235Z,17.40
2022-09-24T21:24:09.606Z,17.40
2022-09-24T21:26:38.812Z,17.40
2022-09-24T21:29:16.882Z,17.40
2022-09-24T21:31:46.250Z,17.40
2022-09-24T21:34:20.835Z,17.40
2022-09-24T21:36:47.866Z,17.30
2022-09-24T21:39:22.951Z,17.30
2022-09-24T21:41:52.501Z,17.30
2022-09-24T21:44:19.753Z,17.30
2022-09-24T21:46:47.751Z,17.30
2022-09-24T21:49:16.872Z,17.30
2022-09-24T21:51:44.519Z,17.20
2022-09-24T21:54:16.128Z,17.20
2022-09-24T21:56:43.504Z,17.30
2022-09-24T21:59:29.395Z,17.20
2022-09-24T22:01:56.333Z,17.20
2022-09-24T22:04:23.643Z,17.20
2022-09-24T22:06:50.999Z,17.20
2022-09-24T22:09:18.812Z,17.20
2022-09-24T22:11:46.267Z,17.20
2022-09-24T22:14:13.922Z,17.20
2022-09-24T22:16:41.056Z,17.20
2022-09-24T22:19:09.253Z,17.00
2022-09-24T22:21:36.940Z,17.20
2022-09-24T22:24:05.319Z,17.20
2022-09-24T22:26:33.079Z,17.20
2022-09-24T22:29:00.562Z,17.10
2022-09-24T22:31:27.995Z,17.10
2022-09-24T22:34:13.918Z,17.20
2022-09-24T22:36:41.046Z,17.30
2022-09-24T22:39:09.397Z,17.10
2022-09-24T22:41:42.920Z,17.10
2022-09-24T22:44:11.998Z,17.10
2022-09-24T22:46:41.611Z,17.10
2022-09-24T22:49:11.010Z,17.10
2022-09-24T22:51:39.226Z,17.10
2022-09-24T22:54:07.857Z,17.10
2022-09-24T22:56:35.463Z,17.00
2022-09-24T22:59:03.378Z,17.00
2022-09-24T23:01:42.926Z,17.00
2022-09-24T23:04:14.685Z,17.00
2022-09-24T23:06:43.455Z,17.00
2022-09-24T23:09:10.835Z,17.00
2022-09-24T23:11:37.796Z,16.90
2022-09-24T23:14:14.739Z,16.90
2022-09-24T23:16:42.803Z,16.90
2022-09-24T23:19:20.423Z,16.90
2022-09-24T23:21:47.463Z,16.90
2022-09-24T23:24:19.736Z,16.90
2022-09-24T23:26:47.343Z,16.80
2022-09-24T23:29:15.462Z,16.80
2022-09-24T23:31:44.966Z,16.80
2022-09-24T23:34:13.574Z,16.80
2022-09-24T23:36:40.739Z,16.80
2022-09-24T23:39:07.732Z,16.80
2022-09-24T23:41:34.799Z,16.80
2022-09-24T23:44:01.940Z,16.80
2022-09-24T23:46:29.178Z,16.80
2022-09-24T23:48:56.719Z,16.80
2022-09-24T23:51:23.930Z,16.80
2022-09-24T23:53:52.822Z,16.80
2022-09-24T23:56:20.628Z,16.80
2022-09-24T23:58:52.952Z,16.80
